Observations for ODIHAM RAF, United Kingdom (EGVO)

EGVO 240850Z 20005KT 9999 FEW040 OVC090 20/18 Q1015 RMK BLU 
EGVO 240750Z 19006KT CAVOK 20/17 Q1014 RMK BLU  
EGVO 240650Z 18001KT CAVOK 19/17 Q1014 RMK BLU  
EGVO 240550Z 02002KT CAVOK 17/16 Q1013 RMK BLU  
EGVO 240450Z 35002KT CAVOK 16/15 Q1013 RMK BLU  
EGVO 240350Z 03003KT CAVOK 16/15 Q1013 RMK BLU  
EGVO 240250Z AUTO 05003KT 6000 HZ FEW190/// 16/15 Q1013 
EGVO 240150Z AUTO 07004KT 7000 HZ FEW230/// 16/14 Q1013 
EGVO 240050Z AUTO 11003KT 7000 HZ BKN200/// 16/14 Q1014 
EGVO 232350Z AUTO 08004KT 8000 HZ BKN180/// 17/15 Q1014 
EGVO 232250Z AUTO 07004KT 9999 FEW050/// BKN180/// 17/15 Q1014  
EGVO 232150Z AUTO 03003KT 9999 FEW050/// OVC170/// 18/14 Q1014  
EGVO 232050Z AUTO 07006KT 9999 SCT050/// BKN150/// 18/14 Q1014  
EGVO 231950Z AUTO 06008KT 9999 FEW050/// OVC110/// 19/14 Q1014  
EGVO 231850Z AUTO 06007KT 9999 FEW050/// OVC110/// 19/14 Q1014  
EGVO 231750Z AUTO 05006KT 9999 FEW050/// BKN110/// 20/14 Q1014  
EGVO 231650Z AUTO 06007KT 9999 BKN120/// 20/14 Q1015
EGVO 231550Z AUTO 07008KT 9999 SCT100/// 21/15 Q1015
EGVO 231520Z 07008KT CAVOK 22/15 Q1015 NOSIG RMK BLU BLU
EGVO 231450Z 06009KT CAVOK 22/15 Q1014 NOSIG RMK BLU BLU
EGVO 231350Z 06009KT 9999 FEW032 SCT130 BKN250 22/14 Q1015 RMK BLU  
EGVO 231250Z AUTO 06009KT 9999 SCT050/// SCT150/// 22/15 Q1015  
EGVO 231150Z AUTO 07008KT 9999 BKN060/// 22/15 Q1016
EGVO 231050Z AUTO 09010KT 9999 FEW070/// 22/15 Q1016
EGVO 230950Z AUTO 05006KT 9999 BKN060/// 21/14 Q1017
EGVO 230850Z AUTO 07005KT 9999 BKN050/// 18/14 Q1017